sensor_id;sensor_type;location;lat;lon;timestamp;pressure;altitude;pressure_sealevel;temperature;humidity
35878;BME280;21982;49.804;24.072;2023-07-31T00:02:22;96753.19;;;18.92;80.62
35878;BME280;21982;49.804;24.072;2023-07-31T00:04:47;96716.47;;;18.66;80.31
35878;BME280;21982;49.804;24.072;2023-07-31T00:07:14;96799.84;;;19.18;80.42
35878;BME280;21982;49.804;24.072;2023-07-31T00:09:39;96807.91;;;19.18;80.41
35878;BME280;21982;49.804;24.072;2023-07-31T00:12:05;96705.84;;;18.54;80.15
35878;BME280;21982;49.804;24.072;2023-07-31T00:14:30;96674.31;;;18.34;80.27
35878;BME280;21982;49.804;24.072;2023-07-31T00:16:56;96769.59;;;18.96;80.41
35878;BME280;21982;49.804;24.072;2023-07-31T00:19:21;96785.78;;;19.06;80.36
35878;BME280;21982;49.804;24.072;2023-07-31T00:21:46;96792.84;;;19.17;80.40
35878;BME280;21982;49.804;24.072;2023-07-31T00:24:12;96743.66;;;18.80;80.14
35878;BME280;21982;49.804;24.072;2023-07-31T00:26:37;96801.16;;;19.16;79.98
35878;BME280;21982;49.804;24.072;2023-07-31T00:29:02;96797.13;;;19.13;80.22
35878;BME280;21982;49.804;24.072;2023-07-31T00:31:28;96748.81;;;18.59;79.88
35878;BME280;21982;49.804;24.072;2023-07-31T00:33:53;96741.44;;;18.71;79.73
35878;BME280;21982;49.804;24.072;2023-07-31T00:36:18;96670.13;;;18.22;79.62
35878;BME280;21982;49.804;24.072;2023-07-31T00:38:44;96805.13;;;19.08;79.46
35878;BME280;21982;49.804;24.072;2023-07-31T00:41:10;96768.31;;;18.77;79.55
35878;BME280;21982;49.804;24.072;2023-07-31T00:43:35;96760.53;;;18.75;79.33
35878;BME280;21982;49.804;24.072;2023-07-31T00:46:00;96716.03;;;18.52;79.31
35878;BME280;21982;49.804;24.072;2023-07-31T00:48:26;96698.19;;;18.41;79.05
35878;BME280;21982;49.804;24.072;2023-07-31T00:50:51;96799.47;;;19.04;79.10
35878;BME280;21982;49.804;24.072;2023-07-31T00:53:17;96772.97;;;18.86;79.10
35878;BME280;21982;49.804;24.072;2023-07-31T00:55:44;96760.63;;;18.85;79.10
35878;BME280;21982;49.804;24.072;2023-07-31T00:58:09;96657.00;;;18.20;78.81
35878;BME280;21982;49.804;24.072;2023-07-31T01:00:35;96713.22;;;18.64;78.87
35878;BME280;21982;49.804;24.072;2023-07-31T01:03:00;96797.91;;;19.14;78.60
35878;BME280;21982;49.804;24.072;2023-07-31T01:05:36;96763.13;;;18.92;78.17
35878;BME280;21982;49.804;24.072;2023-07-31T01:08:15;96722.41;;;18.68;77.90
35878;BME280;21982;49.804;24.072;2023-07-31T01:10:50;96777.44;;;19.02;78.04
35878;BME280;21982;49.804;24.072;2023-07-31T01:13:17;96798.44;;;19.11;78.43
35878;BME280;21982;49.804;24.072;2023-07-31T01:15:43;96784.69;;;19.02;78.27
35878;BME280;21982;49.804;24.072;2023-07-31T01:18:08;96830.94;;;19.14;78.18
35878;BME280;21982;49.804;24.072;2023-07-31T01:20:35;96725.34;;;18.71;78.06
35878;BME280;21982;49.804;24.072;2023-07-31T01:26:07;96794.53;;;19.23;77.80
35878;BME280;21982;49.804;24.072;2023-07-31T01:31:09;96711.66;;;18.68;77.30
35878;BME280;21982;49.804;24.072;2023-07-31T01:33:36;96763.41;;;18.95;77.54
35878;BME280;21982;49.804;24.072;2023-07-31T01:36:03;96789.91;;;19.19;77.36
35878;BME280;21982;49.804;24.072;2023-07-31T01:38:30;96776.66;;;19.07;77.27
35878;BME280;21982;49.804;24.072;2023-07-31T01:40:55;96733.69;;;18.75;77.02
35878;BME280;21982;49.804;24.072;2023-07-31T01:43:21;96770.00;;;18.83;77.43
35878;BME280;21982;49.804;24.072;2023-07-31T01:45:46;96810.78;;;19.12;77.71
35878;BME280;21982;49.804;24.072;2023-07-31T01:48:14;96696.31;;;18.41;77.57
35878;BME280;21982;49.804;24.072;2023-07-31T01:50:39;96798.66;;;19.04;77.39
35878;BME280;21982;49.804;24.072;2023-07-31T01:53:04;96766.44;;;18.77;77.65
35878;BME280;21982;49.804;24.072;2023-07-31T01:55:30;96714.41;;;18.51;77.50
35878;BME280;21982;49.804;24.072;2023-07-31T01:57:55;96731.09;;;18.58;77.29
35878;BME280;21982;49.804;24.072;2023-07-31T02:00:20;96764.56;;;18.78;77.34
35878;BME280;21982;49.804;24.072;2023-07-31T02:02:46;96745.31;;;18.59;77.43
35878;BME280;21982;49.804;24.072;2023-07-31T02:05:12;96777.28;;;18.87;77.38
35878;BME280;21982;49.804;24.072;2023-07-31T02:07:38;96798.34;;;19.00;77.18
35878;BME280;21982;49.804;24.072;2023-07-31T02:10:04;96763.00;;;18.82;77.55
35878;BME280;21982;49.804;24.072;2023-07-31T02:12:29;96798.66;;;19.04;77.41
35878;BME280;21982;49.804;24.072;2023-07-31T02:14:58;96795.19;;;19.08;77.53
35878;BME280;21982;49.804;24.072;2023-07-31T02:17:24;96699.88;;;18.47;77.41
35878;BME280;21982;49.804;24.072;2023-07-31T02:19:49;96790.13;;;19.12;77.18
35878;BME280;21982;49.804;24.072;2023-07-31T02:22:15;96751.13;;;18.99;76.78
35878;BME280;21982;49.804;24.072;2023-07-31T02:24:40;96808.09;;;19.38;76.62
35878;BME280;21982;49.804;24.072;2023-07-31T02:27:06;96808.38;;;19.42;76.41
35878;BME280;21982;49.804;24.072;2023-07-31T02:29:31;96770.38;;;19.23;76.30
35878;BME280;21982;49.804;24.072;2023-07-31T02:31:57;96799.22;;;19.38;75.79
35878;BME280;21982;49.804;24.072;2023-07-31T02:34:22;96784.41;;;19.30;75.86
35878;BME280;21982;49.804;24.072;2023-07-31T02:36:47;96729.91;;;18.98;75.65
35878;BME280;21982;49.804;24.072;2023-07-31T02:39:13;96588.56;;;18.13;75.67
35878;BME280;21982;49.804;24.072;2023-07-31T02:41:38;96761.97;;;19.15;75.28
35878;BME280;21982;49.804;24.072;2023-07-31T02:44:04;96668.88;;;18.56;75.34
35878;BME280;21982;49.804;24.072;2023-07-31T02:46:29;96815.66;;;19.47;75.37
35878;BME280;21982;49.804;24.072;2023-07-31T02:48:54;96637.66;;;18.45;75.41
35878;BME280;21982;49.804;24.072;2023-07-31T02:51:20;96708.84;;;18.85;75.26
35878;BME280;21982;49.804;24.072;2023-07-31T02:53:47;96804.06;;;19.41;75.28
35878;BME280;21982;49.804;24.072;2023-07-31T02:56:13;96764.09;;;19.13;75.49
35878;BME280;21982;49.804;24.072;2023-07-31T02:58:38;96739.22;;;18.90;75.14
35878;BME280;21982;49.804;24.072;2023-07-31T03:01:03;96806.13;;;19.29;75.36
35878;BME280;21982;49.804;24.072;2023-07-31T03:03:29;96789.63;;;19.15;75.34
35878;BME280;21982;49.804;24.072;2023-07-31T03:05:54;96805.81;;;19.25;75.34
35878;BME280;21982;49.804;24.072;2023-07-31T03:08:20;96808.75;;;19.24;75.35
35878;BME280;21982;49.804;24.072;2023-07-31T03:10:48;96727.03;;;18.78;75.38
35878;BME280;21982;49.804;24.072;2023-07-31T03:13:16;96715.66;;;18.65;75.50
35878;BME280;21982;49.804;24.072;2023-07-31T03:15:44;96769.16;;;19.09;75.28
35878;BME280;21982;49.804;24.072;2023-07-31T03:18:09;96804.50;;;19.28;75.17
35878;BME280;21982;49.804;24.072;2023-07-31T03:20:35;96689.22;;;18.52;75.39
35878;BME280;21982;49.804;24.072;2023-07-31T03:23:00;96786.06;;;19.04;75.71
35878;BME280;21982;49.804;24.072;2023-07-31T03:25:25;96703.72;;;18.56;75.42
35878;BME280;21982;49.804;24.072;2023-07-31T03:27:52;96833.97;;;19.23;75.54
35878;BME280;21982;49.804;24.072;2023-07-31T03:30:17;96806.31;;;19.22;75.51
35878;BME280;21982;49.804;24.072;2023-07-31T03:32:43;96815.44;;;19.21;75.25
35878;BME280;21982;49.804;24.072;2023-07-31T03:35:08;96808.47;;;19.20;75.52
35878;BME280;21982;49.804;24.072;2023-07-31T03:37:34;96784.06;;;18.95;75.84
35878;BME280;21982;49.804;24.072;2023-07-31T03:39:59;96814.75;;;19.04;75.54
35878;BME280;21982;49.804;24.072;2023-07-31T03:42:25;96746.81;;;18.71;75.74
35878;BME280;21982;49.804;24.072;2023-07-31T03:44:50;96818.28;;;19.09;75.79
35878;BME280;21982;49.804;24.072;2023-07-31T03:47:17;96804.97;;;18.93;75.99
35878;BME280;21982;49.804;24.072;2023-07-31T03:49:44;96834.56;;;18.98;76.12
35878;BME280;21982;49.804;24.072;2023-07-31T03:52:09;96751.81;;;18.41;76.56
35878;BME280;21982;49.804;24.072;2023-07-31T03:54:36;96729.66;;;18.24;76.72
35878;BME280;21982;49.804;24.072;2023-07-31T03:57:01;96796.53;;;18.57;76.98
35878;BME280;21982;49.804;24.072;2023-07-31T03:59:27;96815.94;;;18.64;77.12
35878;BME280;21982;49.804;24.072;2023-07-31T04:01:52;96836.28;;;18.60;77.47
35878;BME280;21982;49.804;24.072;2023-07-31T04:04:17;96824.59;;;18.71;77.82
35878;BME280;21982;49.804;24.072;2023-07-31T04:06:43;96722.94;;;17.99;77.59
35878;BME280;21982;49.804;24.072;2023-07-31T04:09:09;96817.91;;;18.74;77.74
35878;BME280;21982;49.804;24.072;2023-07-31T04:11:35;96826.75;;;18.74;77.89
35878;BME280;21982;49.804;24.072;2023-07-31T04:14:00;96799.03;;;18.64;77.90
35878;BME280;21982;49.804;24.072;2023-07-31T04:16:27;96822.03;;;18.82;78.01
35878;BME280;21982;49.804;24.072;2023-07-31T04:18:52;96669.28;;;17.94;77.79
35878;BME280;21982;49.804;24.072;2023-07-31T04:21:18;96800.69;;;18.92;77.78
35878;BME280;21982;49.804;24.072;2023-07-31T04:23:44;96824.75;;;19.14;77.23
35878;BME280;21982;49.804;24.072;2023-07-31T04:26:10;96751.78;;;18.85;76.89
35878;BME280;21982;49.804;24.072;2023-07-31T04:28:35;96795.00;;;19.15;76.79
35878;BME280;21982;49.804;24.072;2023-07-31T04:31:00;96782.44;;;18.94;76.35
35878;BME280;21982;49.804;24.072;2023-07-31T04:33:26;96778.72;;;19.27;76.02
35878;BME280;21982;49.804;24.072;2023-07-31T04:35:52;96831.50;;;19.75;75.61
35878;BME280;21982;49.804;24.072;2023-07-31T04:38:19;96836.41;;;19.88;75.38
35878;BME280;21982;49.804;24.072;2023-07-31T04:40:45;96731.84;;;19.39;75.06
35878;BME280;21982;49.804;24.072;2023-07-31T04:43:10;96839.25;;;20.14;74.72
35878;BME280;21982;49.804;24.072;2023-07-31T04:45:36;96814.53;;;20.12;74.28
35878;BME280;21982;49.804;24.072;2023-07-31T04:48:01;96840.44;;;20.28;73.94
35878;BME280;21982;49.804;24.072;2023-07-31T04:50:30;96857.22;;;20.40;73.48
35878;BME280;21982;49.804;24.072;2023-07-31T04:52:56;96745.63;;;19.90;73.36
35878;BME280;21982;49.804;24.072;2023-07-31T04:55:21;96839.56;;;20.64;72.70
35878;BME280;21982;49.804;24.072;2023-07-31T04:57:49;96810.28;;;20.78;72.28
35878;BME280;21982;49.804;24.072;2023-07-31T05:00:15;96751.84;;;20.58;71.61
35878;BME280;21982;49.804;24.072;2023-07-31T05:02:40;96838.97;;;21.40;71.10
35878;BME280;21982;49.804;24.072;2023-07-31T05:05:06;96829.28;;;21.69;70.38
35878;BME280;21982;49.804;24.072;2023-07-31T05:07:32;96773.47;;;21.65;69.69
35878;BME280;21982;49.804;24.072;2023-07-31T05:09:57;96847.22;;;22.45;68.93
35878;BME280;21982;49.804;24.072;2023-07-31T05:12:22;96786.84;;;22.31;68.07
35878;BME280;21982;49.804;24.072;2023-07-31T05:14:48;96849.19;;;22.94;67.20
35878;BME280;21982;49.804;24.072;2023-07-31T05:17:13;96836.97;;;23.51;66.32
35878;BME280;21982;49.804;24.072;2023-07-31T05:19:38;96840.88;;;24.02;64.57
35878;BME280;21982;49.804;24.072;2023-07-31T05:22:04;96746.53;;;23.72;63.19
35878;BME280;21982;49.804;24.072;2023-07-31T05:24:29;96845.53;;;24.73;62.38
35878;BME280;21982;49.804;24.072;2023-07-31T05:26:56;96614.13;;;22.85;61.64
35878;BME280;21982;49.804;24.072;2023-07-31T05:29:23;96850.00;;;24.12;62.33
35878;BME280;21982;49.804;24.072;2023-07-31T05:31:51;96841.69;;;24.80;61.04
35878;BME280;21982;49.804;24.072;2023-07-31T05:34:16;96770.94;;;25.05;59.41
35878;BME280;21982;49.804;24.072;2023-07-31T05:36:42;96848.31;;;25.49;58.93
35878;BME280;21982;49.804;24.072;2023-07-31T05:39:10;96673.66;;;24.52;58.72
35878;BME280;21982;49.804;24.072;2023-07-31T05:41:36;96807.34;;;24.75;59.12
35878;BME280;21982;49.804;24.072;2023-07-31T05:44:02;96750.44;;;23.90;59.63
35878;BME280;21982;49.804;24.072;2023-07-31T05:46:27;96819.84;;;23.94;59.95
35878;BME280;21982;49.804;24.072;2023-07-31T05:48:53;96851.38;;;23.80;60.36
35878;BME280;21982;49.804;24.072;2023-07-31T05:51:18;96750.94;;;22.90;61.12
35878;BME280;21982;49.804;24.072;2023-07-31T05:53:44;96679.44;;;22.43;61.29
35878;BME280;21982;49.804;24.072;2023-07-31T05:56:09;96800.34;;;24.50;59.86
35878;BME280;21982;49.804;24.072;2023-07-31T05:58:35;96833.19;;;25.99;57.47
35878;BME280;21982;49.804;24.072;2023-07-31T06:01:00;96786.97;;;26.73;55.25
35878;BME280;21982;49.804;24.072;2023-07-31T06:08:36;96799.66;;;28.64;50.24
35878;BME280;21982;49.804;24.072;2023-07-31T06:11:01;96846.69;;;29.44;49.40
35878;BME280;21982;49.804;24.072;2023-07-31T06:13:27;96818.72;;;29.99;48.15
35878;BME280;21982;49.804;24.072;2023-07-31T06:15:52;96831.50;;;30.71;46.62
35878;BME280;21982;49.804;24.072;2023-07-31T06:18:19;96814.78;;;30.93;45.55
35878;BME280;21982;49.804;24.072;2023-07-31T06:20:48;96874.13;;;31.73;44.60
35878;BME280;21982;49.804;24.072;2023-07-31T06:23:19;96775.81;;;31.47;43.81
35878;BME280;21982;49.804;24.072;2023-07-31T06:25:48;96862.22;;;32.55;42.91
35878;BME280;21982;49.804;24.072;2023-07-31T06:28:13;96809.34;;;32.55;42.26
35878;BME280;21982;49.804;24.072;2023-07-31T06:30:40;96670.09;;;31.87;41.51
35878;BME280;21982;49.804;24.072;2023-07-31T06:33:05;96843.59;;;33.22;41.00
35878;BME280;21982;49.804;24.072;2023-07-31T06:35:33;96830.69;;;33.62;40.01
35878;BME280;21982;49.804;24.072;2023-07-31T06:37:59;96869.75;;;34.12;39.45
35878;BME280;21982;49.804;24.072;2023-07-31T06:40:24;96809.41;;;34.15;38.88
35878;BME280;21982;49.804;24.072;2023-07-31T06:42:50;96844.13;;;34.83;37.72
35878;BME280;21982;49.804;24.072;2023-07-31T06:45:15;96837.22;;;35.24;37.01
35878;BME280;21982;49.804;24.072;2023-07-31T06:47:41;96857.13;;;35.17;36.42
35878;BME280;21982;49.804;24.072;2023-07-31T06:50:07;96841.13;;;34.88;36.28
35878;BME280;21982;49.804;24.072;2023-07-31T06:52:33;96816.16;;;34.18;36.63
35878;BME280;21982;49.804;24.072;2023-07-31T06:55:24;96840.88;;;34.18;36.79
35878;BME280;21982;49.804;24.072;2023-07-31T06:57:51;96865.22;;;34.04;36.96
35878;BME280;21982;49.804;24.072;2023-07-31T07:00:18;96820.03;;;33.33;37.61
35878;BME280;21982;49.804;24.072;2023-07-31T07:02:45;96865.16;;;33.60;37.36
35878;BME280;21982;49.804;24.072;2023-07-31T07:05:13;96822.31;;;33.31;37.71
35878;BME280;21982;49.804;24.072;2023-07-31T07:07:41;96871.03;;;33.86;37.73
35878;BME280;21982;49.804;24.072;2023-07-31T07:10:07;96877.38;;;34.46;36.92
35878;BME280;21982;49.804;24.072;2023-07-31T07:12:34;96717.13;;;33.99;35.86
35878;BME280;21982;49.804;24.072;2023-07-31T07:15:00;96871.34;;;35.54;35.47
35878;BME280;21982;49.804;24.072;2023-07-31T07:17:29;96865.22;;;35.80;34.64
35878;BME280;21982;49.804;24.072;2023-07-31T07:19:57;96875.41;;;35.25;34.99
35878;BME280;21982;49.804;24.072;2023-07-31T07:22:23;96863.34;;;34.67;35.53
35878;BME280;21982;49.804;24.072;2023-07-31T07:24:49;96858.06;;;34.58;35.70
35878;BME280;21982;49.804;24.072;2023-07-31T07:27:14;96864.97;;;34.68;35.56
35878;BME280;21982;49.804;24.072;2023-07-31T07:34:50;96632.84;;;34.53;33.74
35878;BME280;21982;49.804;24.072;2023-07-31T07:37:16;96801.81;;;36.42;32.78
35878;BME280;21982;49.804;24.072;2023-07-31T07:39:41;96723.97;;;36.03;32.32
35878;BME280;21982;49.804;24.072;2023-07-31T07:42:07;96794.28;;;36.62;32.08
35878;BME280;21982;49.804;24.072;2023-07-31T07:44:33;96823.09;;;36.64;32.44
35878;BME280;21982;49.804;24.072;2023-07-31T07:47:00;96774.22;;;36.38;31.62
35878;BME280;21982;49.804;24.072;2023-07-31T07:49:25;96801.19;;;36.52;31.78
35878;BME280;21982;49.804;24.072;2023-07-31T07:51:51;96863.38;;;36.91;31.42
35878;BME280;21982;49.804;24.072;2023-07-31T07:54:16;96862.13;;;37.15;31.53
35878;BME280;21982;49.804;24.072;2023-07-31T07:56:42;96862.81;;;37.92;30.95
35878;BME280;21982;49.804;24.072;2023-07-31T08:01:43;96844.34;;;37.99;29.95
35878;BME280;21982;49.804;24.072;2023-07-31T08:04:08;96872.06;;;37.46;29.96
35878;BME280;21982;49.804;24.072;2023-07-31T08:06:35;96642.41;;;35.56;30.45
35878;BME280;21982;49.804;24.072;2023-07-31T08:09:00;96758.13;;;35.98;30.77
35878;BME280;21982;49.804;24.072;2023-07-31T08:11:32;96870.28;;;36.82;30.47
35878;BME280;21982;49.804;24.072;2023-07-31T08:13:58;96686.34;;;35.91;30.03
35878;BME280;21982;49.804;24.072;2023-07-31T08:16:23;96870.47;;;37.42;29.84
35878;BME280;21982;49.804;24.072;2023-07-31T08:18:49;96792.28;;;37.11;30.41
35878;BME280;21982;49.804;24.072;2023-07-31T08:21:14;96707.97;;;35.89;30.74
35878;BME280;21982;49.804;24.072;2023-07-31T08:23:41;96846.31;;;37.12;30.00
35878;BME280;21982;49.804;24.072;2023-07-31T08:26:06;96840.25;;;37.26;29.78
35878;BME280;21982;49.804;24.072;2023-07-31T08:28:32;96817.91;;;36.36;30.18
35878;BME280;21982;49.804;24.072;2023-07-31T08:30:58;96792.16;;;35.67;30.61
35878;BME280;21982;49.804;24.072;2023-07-31T08:33:23;96826.94;;;35.95;30.40
35878;BME280;21982;49.804;24.072;2023-07-31T08:35:50;96672.44;;;35.42;30.60
35878;BME280;21982;49.804;24.072;2023-07-31T08:38:15;96811.22;;;35.21;31.56
35878;BME280;21982;49.804;24.072;2023-07-31T08:40:41;96802.28;;;35.44;31.58
35878;BME280;21982;49.804;24.072;2023-07-31T08:43:08;96836.00;;;35.95;31.40
35878;BME280;21982;49.804;24.072;2023-07-31T08:45:34;96808.38;;;34.51;32.33
35878;BME280;21982;49.804;24.072;2023-07-31T08:48:01;96858.78;;;34.12;33.19
35878;BME280;21982;49.804;24.072;2023-07-31T08:50:27;96863.47;;;33.83;32.90
35878;BME280;21982;49.804;24.072;2023-07-31T08:52:53;96864.13;;;33.92;32.94
35878;BME280;21982;49.804;24.072;2023-07-31T08:55:19;96864.34;;;34.43;32.54
35878;BME280;21982;49.804;24.072;2023-07-31T08:57:51;96802.78;;;34.95;32.12
35878;BME280;21982;49.804;24.072;2023-07-31T09:00:20;96831.25;;;35.38;31.40
35878;BME280;21982;49.804;24.072;2023-07-31T09:03:09;96740.84;;;34.70;31.79
35878;BME280;21982;49.804;24.072;2023-07-31T09:08:20;96508.22;;;33.28;32.05
35878;BME280;21982;49.804;24.072;2023-07-31T09:10:52;96806.41;;;35.53;31.63
35878;BME280;21982;49.804;24.072;2023-07-31T09:13:21;96562.25;;;33.87;31.47
35878;BME280;21982;49.804;24.072;2023-07-31T09:15:50;96850.22;;;35.78;31.49
35878;BME280;21982;49.804;24.072;2023-07-31T09:18:16;96832.78;;;34.53;31.93
35878;BME280;21982;49.804;24.072;2023-07-31T09:20:45;96854.47;;;33.99;33.10
35878;BME280;21982;49.804;24.072;2023-07-31T09:23:13;96799.38;;;33.91;32.80
35878;BME280;21982;49.804;24.072;2023-07-31T09:25:43;96853.25;;;34.40;32.44
35878;BME280;21982;49.804;24.072;2023-07-31T09:28:10;96843.03;;;34.72;32.16
35878;BME280;21982;49.804;24.072;2023-07-31T09:31:02;96839.53;;;35.57;32.00
35878;BME280;21982;49.804;24.072;2023-07-31T09:33:28;96804.03;;;34.35;32.21
35878;BME280;21982;49.804;24.072;2023-07-31T09:35:53;96737.53;;;33.02;33.28
35878;BME280;21982;49.804;24.072;2023-07-31T09:38:24;96727.13;;;33.63;33.45
35878;BME280;21982;49.804;24.072;2023-07-31T09:40:49;96750.06;;;33.27;33.02
35878;BME280;21982;49.804;24.072;2023-07-31T09:43:22;96781.97;;;32.10;34.61
35878;BME280;21982;49.804;24.072;2023-07-31T09:45:55;96810.53;;;32.21;35.18
35878;BME280;21982;49.804;24.072;2023-07-31T09:48:23;96763.25;;;32.12;35.26
35878;BME280;21982;49.804;24.072;2023-07-31T09:50:51;96834.03;;;32.79;34.99
35878;BME280;21982;49.804;24.072;2023-07-31T09:53:18;96745.53;;;33.47;33.48
35878;BME280;21982;49.804;24.072;2023-07-31T09:55:44;96843.44;;;34.86;32.04
35878;BME280;21982;49.804;24.072;2023-07-31T09:58:11;96794.38;;;35.42;31.76
35878;BME280;21982;49.804;24.072;2023-07-31T10:00:38;96834.19;;;36.45;30.76
35878;BME280;21982;49.804;24.072;2023-07-31T10:03:06;96760.09;;;36.43;29.96
35878;BME280;21982;49.804;24.072;2023-07-31T10:05:36;96848.06;;;37.80;29.53
35878;BME280;21982;49.804;24.072;2023-07-31T10:08:04;96839.06;;;38.20;28.86
35878;BME280;21982;49.804;24.072;2023-07-31T10:10:32;96843.53;;;38.32;27.57
35878;BME280;21982;49.804;24.072;2023-07-31T10:12:59;96780.38;;;37.34;28.34
35878;BME280;21982;49.804;24.072;2023-07-31T10:15:28;96831.88;;;37.49;29.35
35878;BME280;21982;49.804;24.072;2023-07-31T10:17:55;96776.56;;;37.15;29.27
35878;BME280;21982;49.804;24.072;2023-07-31T10:20:21;96739.88;;;36.85;29.00
35878;BME280;21982;49.804;24.072;2023-07-31T10:22:47;96809.50;;;37.28;28.71
35878;BME280;21982;49.804;24.072;2023-07-31T10:25:15;96833.50;;;36.97;28.33
35878;BME280;21982;49.804;24.072;2023-07-31T10:27:41;96761.41;;;36.27;28.25
35878;BME280;21982;49.804;24.072;2023-07-31T10:30:12;96813.41;;;36.28;28.99
35878;BME280;21982;49.804;24.072;2023-07-31T10:32:41;96822.75;;;36.23;29.09
35878;BME280;21982;49.804;24.072;2023-07-31T10:35:10;96790.03;;;35.99;29.72
35878;BME280;21982;49.804;24.072;2023-07-31T10:37:41;96833.94;;;36.31;29.64
35878;BME280;21982;49.804;24.072;2023-07-31T10:40:34;96814.75;;;36.61;29.53
35878;BME280;21982;49.804;24.072;2023-07-31T10:43:01;96781.94;;;36.78;29.10
35878;BME280;21982;49.804;24.072;2023-07-31T10:45:41;96817.41;;;37.03;28.22
35878;BME280;21982;49.804;24.072;2023-07-31T10:48:16;96625.84;;;35.52;28.43
35878;BME280;21982;49.804;24.072;2023-07-31T10:50:51;96807.09;;;35.85;30.70
35878;BME280;21982;49.804;24.072;2023-07-31T10:53:30;96809.88;;;36.08;29.28
35878;BME280;21982;49.804;24.072;2023-07-31T10:55:59;96737.31;;;36.01;29.22
35878;BME280;21982;49.804;24.072;2023-07-31T10:58:25;96753.84;;;36.23;28.29
35878;BME280;21982;49.804;24.072;2023-07-31T11:00:55;96804.34;;;36.50;26.94
35878;BME280;21982;49.804;24.072;2023-07-31T11:03:40;96743.72;;;35.85;28.73
35878;BME280;21982;49.804;24.072;2023-07-31T11:06:06;96799.97;;;36.49;27.93
35878;BME280;21982;49.804;24.072;2023-07-31T11:08:34;96756.66;;;36.50;28.44
35878;BME280;21982;49.804;24.072;2023-07-31T11:11:07;96794.94;;;36.78;28.13
35878;BME280;21982;49.804;24.072;2023-07-31T11:13:54;96778.59;;;36.92;28.10
35878;BME280;21982;49.804;24.072;2023-07-31T11:16:22;96791.66;;;36.95;27.93
35878;BME280;21982;49.804;24.072;2023-07-31T11:18:48;96781.03;;;36.71;27.83
35878;BME280;21982;49.804;24.072;2023-07-31T11:21:16;96794.19;;;36.81;27.60
35878;BME280;21982;49.804;24.072;2023-07-31T11:23:46;96775.94;;;36.73;27.77
35878;BME280;21982;49.804;24.072;2023-07-31T11:26:11;96776.28;;;36.94;27.31
35878;BME280;21982;49.804;24.072;2023-07-31T11:28:37;96783.91;;;37.04;27.58
35878;BME280;21982;49.804;24.072;2023-07-31T11:31:04;96777.38;;;36.89;27.87
35878;BME280;21982;49.804;24.072;2023-07-31T11:33:30;96761.94;;;36.85;27.68
35878;BME280;21982;49.804;24.072;2023-07-31T11:35:56;96777.66;;;37.11;28.04
35878;BME280;21982;49.804;24.072;2023-07-31T11:38:32;96733.50;;;36.81;27.21
35878;BME280;21982;49.804;24.072;2023-07-31T11:41:03;96777.53;;;37.27;26.70
35878;BME280;21982;49.804;24.072;2023-07-31T11:43:30;96761.44;;;37.66;26.77
35878;BME280;21982;49.804;24.072;2023-07-31T11:45:57;96737.81;;;38.09;26.25
35878;BME280;21982;49.804;24.072;2023-07-31T11:48:27;96715.25;;;38.51;25.83
35878;BME280;21982;49.804;24.072;2023-07-31T11:50:57;96635.47;;;37.61;25.32
35878;BME280;21982;49.804;24.072;2023-07-31T11:53:36;96756.81;;;38.10;25.60
35878;BME280;21982;49.804;24.072;2023-07-31T11:56:03;96750.63;;;38.24;26.19
35878;BME280;21982;49.804;24.072;2023-07-31T11:58:31;96766.50;;;37.94;25.58
35878;BME280;21982;49.804;24.072;2023-07-31T12:00:57;96743.13;;;37.20;26.23
35878;BME280;21982;49.804;24.072;2023-07-31T12:03:24;96704.22;;;36.73;27.05
35878;BME280;21982;49.804;24.072;2023-07-31T12:05:50;96716.44;;;36.49;27.05
35878;BME280;21982;49.804;24.072;2023-07-31T12:08:15;96652.91;;;36.42;27.33
35878;BME280;21982;49.804;24.072;2023-07-31T12:10:41;96755.97;;;37.69;26.63
35878;BME280;21982;49.804;24.072;2023-07-31T12:13:11;96723.41;;;37.89;25.78
35878;BME280;21982;49.804;24.072;2023-07-31T12:15:43;96762.97;;;37.97;27.54
35878;BME280;21982;49.804;24.072;2023-07-31T12:18:13;96768.34;;;37.82;26.95
35878;BME280;21982;49.804;24.072;2023-07-31T12:20:47;96714.28;;;36.88;26.70
35878;BME280;21982;49.804;24.072;2023-07-31T12:25:41;96657.81;;;35.18;28.53
35878;BME280;21982;49.804;24.072;2023-07-31T12:28:07;96750.38;;;36.27;28.21
35878;BME280;21982;49.804;24.072;2023-07-31T12:30:39;96756.81;;;36.61;27.81
35878;BME280;21982;49.804;24.072;2023-07-31T12:33:18;96755.59;;;37.11;27.07
35878;BME280;21982;49.804;24.072;2023-07-31T12:35:46;96762.69;;;37.68;26.43
35878;BME280;21982;49.804;24.072;2023-07-31T12:38:14;96725.31;;;37.81;26.40
35878;BME280;21982;49.804;24.072;2023-07-31T12:40:41;96738.28;;;37.44;26.40
35878;BME280;21982;49.804;24.072;2023-07-31T12:43:07;96682.03;;;36.16;26.59
35878;BME280;21982;49.804;24.072;2023-07-31T12:45:33;96743.28;;;35.45;26.70
35878;BME280;21982;49.804;24.072;2023-07-31T12:48:00;96742.94;;;35.46;28.46
35878;BME280;21982;49.804;24.072;2023-07-31T12:50:26;96737.34;;;35.43;28.19
35878;BME280;21982;49.804;24.072;2023-07-31T12:52:53;96728.41;;;35.11;28.02
35878;BME280;21982;49.804;24.072;2023-07-31T12:55:18;96707.91;;;34.89;28.68
35878;BME280;21982;49.804;24.072;2023-07-31T12:57:44;96678.91;;;34.25;29.54
35878;BME280;21982;49.804;24.072;2023-07-31T13:00:10;96688.34;;;33.49;30.62
35878;BME280;21982;49.804;24.072;2023-07-31T13:02:36;96649.69;;;32.34;31.96
35878;BME280;21982;49.804;24.072;2023-07-31T13:05:01;96685.59;;;31.95;33.04
35878;BME280;21982;49.804;24.072;2023-07-31T13:07:27;96726.81;;;31.66;33.54
35878;BME280;21982;49.804;24.072;2023-07-31T13:09:52;96682.75;;;30.93;34.20
35878;BME280;21982;49.804;24.072;2023-07-31T13:12:18;96666.78;;;30.53;34.68
35878;BME280;21982;49.804;24.072;2023-07-31T13:14:43;96752.47;;;31.28;34.99